Time;durP1;ratioP1;P1;durP2;ratioP2;P2;SDS_P1;SDS_P2;PMS_P1;PMS_P2;Temp;Humidity;BMP_temperature;BMP_pressure;BME280_temperature;BME280_humidity;BME280_pressure;Samples;Min_cycle;Max_cycle;Signal;HPM_P1;HPM_P2
2020/12/06 00:01:43;389177.00;1.30;671.20;0.00;0.00;0.62;;;;;8.30;1.00;;;;;;2272579;61;1338;-89
2020/12/06 00:04:11;347831.00;1.16;600.13;0.00;0.00;0.62;;;;;8.50;1.00;;;;;;2272350;61;1121;-89
2020/12/06 00:06:38;478460.00;1.59;824.75;0.00;0.00;0.62;;;;;8.50;1.00;;;;;;2272388;61;1110;-89
2020/12/06 00:09:07;345568.00;1.15;596.24;0.00;0.00;0.62;;;;;8.60;1.00;;;;;;2272226;61;1139;-90
2020/12/06 00:11:34;416809.00;1.39;718.70;0.00;0.00;0.62;;;;;8.80;1.00;;;;;;2272177;61;1486;-87
2020/12/06 00:14:01;321610.00;1.07;555.07;0.00;0.00;0.62;;;;;8.80;1.00;;;;;;2272218;61;2016;-88
2020/12/06 00:16:28;280355.00;0.93;484.15;0.00;0.00;0.62;;;;;9.20;1.00;;;;;;2272243;61;1136;-88
2020/12/06 00:18:55;277749.00;0.93;479.67;0.00;0.00;0.62;;;;;9.70;1.00;;;;;;2272118;61;1754;-87
2020/12/06 00:21:22;223501.00;0.75;386.37;0.00;0.00;0.62;;;;;10.30;1.00;;;;;;2271982;61;1281;-88
2020/12/06 00:23:50;318696.00;1.06;550.06;0.00;0.00;0.62;;;;;10.60;1.00;;;;;;2272074;61;996;-88
2020/12/06 00:26:21;164675.00;0.55;285.09;0.00;0.00;0.62;;;;;10.50;1.00;;;;;;2272164;61;1123;-88
2020/12/06 00:28:50;283806.00;0.95;490.08;0.00;0.00;0.62;;;;;10.30;1.00;;;;;;2272196;61;1014;-87
2020/12/06 00:31:17;277705.00;0.93;479.59;0.00;0.00;0.62;;;;;9.80;1.00;;;;;;2272194;61;1356;-87
2020/12/06 00:33:44;237169.00;0.79;409.88;0.00;0.00;0.62;;;;;9.30;1.00;;;;;;2272223;61;2005;-88
2020/12/06 00:36:11;263213.00;0.88;454.67;0.00;0.00;0.62;;;;;8.30;1.00;;;;;;2272297;61;1047;-89
2020/12/06 00:38:38;475146.00;1.58;819.04;0.00;0.00;0.62;;;;;7.70;1.00;;;;;;2272327;61;1029;-89
2020/12/06 00:41:05;313179.00;1.04;540.57;0.00;0.00;0.62;;;;;7.80;1.00;;;;;;2272273;61;1431;-89
2020/12/06 00:43:32;363817.00;1.21;627.61;0.00;0.00;0.62;;;;;7.70;1.00;;;;;;2271936;61;1673;-88
2020/12/06 00:45:59;293108.00;0.98;506.07;0.00;0.00;0.62;;;;;7.60;1.00;;;;;;2272290;61;1006;-89
2020/12/06 00:48:26;117874128.00;392.91;66342024.00;0.00;0.00;0.62;;;;;7.30;1.00;;;;;;2272279;61;1129;-88
2020/12/06 00:50:52;424371.00;1.41;731.71;0.00;0.00;0.62;;;;;7.10;1.00;;;;;;2272186;61;1347;-88
2020/12/06 00:53:18;402348.00;1.34;693.84;0.00;0.00;0.62;;;;;7.00;2.10;;;;;;2272142;61;1923;-89
2020/12/06 00:55:45;419373.00;1.40;723.11;0.00;0.00;0.62;;;;;7.00;3.10;;;;;;2272731;61;1050;-89
2020/12/06 00:58:11;436500.00;1.46;752.56;0.00;0.00;0.62;;;;;7.10;2.10;;;;;;2272929;61;1073;-88
2020/12/06 01:00:38;383818.00;1.28;661.99;0.00;0.00;0.62;;;;;6.80;2.50;;;;;;2272910;61;1319;-89
2020/12/06 01:03:05;377172.00;1.26;650.56;0.00;0.00;0.62;;;;;7.00;3.00;;;;;;2272974;61;1103;-88
2020/12/06 01:05:32;437724.00;1.46;754.67;0.00;0.00;0.62;;;;;7.10;2.50;;;;;;2272935;61;985;-89
2020/12/06 01:07:58;453773.00;1.51;782.27;0.00;0.00;0.62;;;;;7.20;1.50;;;;;;2272864;61;1425;-88
2020/12/06 01:10:25;352825.00;1.18;608.72;0.00;0.00;0.62;;;;;7.00;2.20;;;;;;2272899;61;1407;-89
2020/12/06 01:12:52;363155.00;1.21;626.47;0.00;0.00;0.62;;;;;7.00;1.90;;;;;;2272874;61;1918;-88
2020/12/06 01:15:19;500213.00;1.67;862.19;0.00;0.00;0.62;;;;;7.00;2.60;;;;;;2272892;61;1106;-89
2020/12/06 01:17:45;375727.00;1.25;648.08;0.00;0.00;0.62;;;;;7.20;2.00;;;;;;2272869;61;948;-88
2020/12/06 01:20:13;325213.00;1.08;561.26;0.00;0.00;0.62;;;;;7.00;2.90;;;;;;2272834;61;1286;-89
2020/12/06 01:22:41;334051.00;1.11;576.45;0.00;0.00;0.62;;;;;7.10;2.90;;;;;;2272760;61;1178;-88
2020/12/06 01:25:07;295489.00;0.98;510.17;0.00;0.00;0.62;;;;;7.50;4.80;;;;;;2272850;61;1125;-88
2020/12/06 01:27:34;340050.00;1.13;586.76;0.00;0.00;0.62;;;;;8.10;3.70;;;;;;2272854;61;1061;-88
2020/12/06 01:30:00;386937.00;1.29;667.35;0.00;0.00;0.62;;;;;8.40;1.00;;;;;;2272706;61;1303;-87
2020/12/06 01:32:27;306397.00;1.02;528.92;0.00;0.00;0.62;;;;;8.90;1.20;;;;;;2272714;61;1112;-88
2020/12/06 01:34:53;213098.00;0.71;368.47;0.00;0.00;0.62;;;;;9.30;1.00;;;;;;2272787;61;2017;-88
2020/12/06 01:37:21;201191.00;0.67;347.97;0.00;0.00;0.62;;;;;9.80;1.00;;;;;;2272545;61;1671;-88
2020/12/06 01:39:47;372925.00;1.24;643.26;0.00;0.00;0.62;;;;;10.40;1.00;;;;;;2272667;61;1375;-88
2020/12/06 01:42:13;271524.00;0.91;468.96;0.00;0.00;0.62;;;;;10.50;1.00;;;;;;2272485;61;1727;-88
2020/12/06 01:44:40;315183.00;1.05;544.02;0.00;0.00;0.62;;;;;10.40;1.00;;;;;;2272469;61;1147;-87
2020/12/06 01:47:07;346056.00;1.15;597.08;0.00;0.00;0.62;;;;;10.50;1.00;;;;;;2272543;61;1011;-87
2020/12/06 01:49:36;194969.00;0.65;337.26;0.00;0.00;0.62;;;;;10.80;1.00;;;;;;2272503;61;1101;-88
2020/12/06 01:52:05;283930.00;0.95;490.29;19089.00;0.06;33.69;;;;;11.20;1.00;;;;;;2272518;61;1115;-88
2020/12/06 01:54:32;172072.00;0.57;297.84;0.00;0.00;0.62;;;;;11.60;1.00;;;;;;2272575;61;1923;-88
2020/12/06 01:56:59;220915.00;0.74;381.92;0.00;0.00;0.62;;;;;11.70;1.00;;;;;;2272647;61;1091;-88
2020/12/06 01:59:25;264085.00;0.88;456.17;0.00;0.00;0.62;;;;;11.90;1.00;;;;;;2272648;61;1131;-88
2020/12/06 02:01:56;209349.00;0.70;362.01;0.00;0.00;0.62;;;;;12.00;1.00;;;;;;2272580;61;1401;-87
2020/12/06 02:04:25;175274.00;0.58;303.35;0.00;0.00;0.62;;;;;11.90;1.00;;;;;;2272385;61;1103;-88
2020/12/06 02:06:52;137814.00;0.46;238.80;0.00;0.00;0.62;;;;;12.00;1.00;;;;;;2272585;61;1089;-88
2020/12/06 02:09:19;146055.00;0.49;253.01;0.00;0.00;0.62;;;;;12.20;1.00;;;;;;2272538;61;1023;-87
2020/12/06 02:11:46;291009.00;0.97;502.46;0.00;0.00;0.62;;;;;12.30;1.00;;;;;;2272687;61;1309;-88
2020/12/06 02:14:14;139459.00;0.46;241.64;0.00;0.00;0.62;;;;;12.40;1.00;;;;;;2272519;61;1923;-87
2020/12/06 02:16:40;215468.00;0.72;372.55;0.00;0.00;0.62;;;;;12.40;1.00;;;;;;2272496;61;1122;-88
2020/12/06 02:19:08;211626.00;0.71;365.93;0.00;0.00;0.62;;;;;12.10;1.00;;;;;;2272306;61;1054;-88
2020/12/06 02:21:39;228394.00;0.76;394.79;0.00;0.00;0.62;;;;;12.20;1.00;;;;;;2272402;61;1314;-89
2020/12/06 02:24:06;290787.00;0.97;502.08;0.00;0.00;0.62;;;;;12.30;1.00;;;;;;2272158;61;1449;-89
2020/12/06 02:26:39;150269.00;0.50;260.27;0.00;0.00;0.62;;;;;12.30;1.00;;;;;;2272471;61;1124;-89
2020/12/06 02:29:05;225017.00;0.75;388.98;0.00;0.00;0.62;;;;;12.30;1.00;;;;;;2272638;61;1046;-87
2020/12/06 02:31:32;148735.00;0.50;257.63;0.00;0.00;0.62;;;;;12.30;1.00;;;;;;2272559;61;1406;-87
2020/12/06 02:33:59;156261.00;0.52;270.60;0.00;0.00;0.62;;;;;12.20;1.00;;;;;;2272552;61;1935;-86
2020/12/06 02:36:26;119758.00;0.40;207.66;0.00;0.00;0.62;;;;;12.20;1.00;;;;;;2272531;61;1672;-88
2020/12/06 02:38:54;186317.00;0.62;322.37;0.00;0.00;0.62;;;;;12.10;1.00;;;;;;2272582;61;1104;-89
2020/12/06 02:41:21;108013.00;0.36;187.40;0.00;0.00;0.62;;;;;12.30;1.00;;;;;;2272396;61;1313;-88
2020/12/06 02:43:47;317941.00;1.06;548.76;0.00;0.00;0.62;;;;;11.60;1.00;;;;;;2272052;61;1003;-89
2020/12/06 02:46:14;158920.00;0.53;275.18;0.00;0.00;0.62;;;;;11.00;1.00;;;;;;2272382;61;1014;-89
2020/12/06 02:48:40;269916.00;0.90;466.20;0.00;0.00;0.62;;;;;11.30;1.00;;;;;;2272383;61;1068;-89
2020/12/06 02:51:07;262590.00;0.88;453.60;0.00;0.00;0.62;;;;;11.60;1.00;;;;;;2272277;61;1756;-89
2020/12/06 02:53:34;147769.00;0.49;255.96;0.00;0.00;0.62;;;;;11.80;1.00;;;;;;2272243;61;1931;-89
2020/12/06 02:56:01;228879.00;0.76;395.62;0.00;0.00;0.62;;;;;12.10;1.00;;;;;;2272284;61;1089;-88
2020/12/06 02:58:28;223397.00;0.74;386.19;0.00;0.00;0.62;;;;;12.20;1.00;;;;;;2272257;61;1066;-89
2020/12/06 03:00:55;165448.00;0.55;286.43;0.00;0.00;0.62;;;;;12.00;1.00;;;;;;2272258;61;1320;-88
2020/12/06 03:03:21;591219.00;1.97;1019.06;123549.00;0.41;214.20;;;;;12.20;1.00;;;;;;2272228;61;1632;-88
2020/12/06 03:05:48;169538.00;0.57;293.47;0.00;0.00;0.62;;;;;12.40;1.00;;;;;;2272289;61;1562;-89
2020/12/06 03:08:14;136245.00;0.45;236.10;0.00;0.00;0.62;;;;;12.40;1.00;;;;;;2272212;61;1151;-87
2020/12/06 03:10:41;199602.00;0.67;345.24;0.00;0.00;0.62;;;;;11.70;1.00;;;;;;2272143;61;1416;-88
2020/12/06 03:13:08;327709.00;1.09;565.55;0.00;0.00;0.62;;;;;11.00;1.00;;;;;;2272295;61;2010;-88
2020/12/06 03:15:35;304757.00;1.02;526.10;0.00;0.00;0.62;;;;;10.70;1.00;;;;;;2272107;61;1113;-88
2020/12/06 03:18:01;288596.00;0.96;498.32;0.00;0.00;0.62;;;;;10.50;1.00;;;;;;2272107;61;1107;-88
2020/12/06 03:20:33;288456.00;0.96;498.08;0.00;0.00;0.62;;;;;10.60;1.00;;;;;;2272174;61;1384;-88
2020/12/06 03:23:00;227757.00;0.76;393.69;0.00;0.00;0.62;;;;;10.90;1.00;;;;;;2272182;61;1109;-88
2020/12/06 03:25:26;57181.00;0.19;99.60;0.00;0.00;0.62;;;;;11.40;1.00;;;;;;2272175;61;1065;-88
2020/12/06 03:27:53;314341.00;1.05;542.57;0.00;0.00;0.62;;;;;11.50;1.00;;;;;;2271975;61;1115;-88
2020/12/06 03:30:20;242215.00;0.81;418.56;0.00;0.00;0.62;;;;;11.10;1.00;;;;;;2272060;61;1712;-88
2020/12/06 03:32:47;246714.00;0.82;426.30;0.00;0.00;0.62;;;;;11.00;1.00;;;;;;2272120;61;1089;-88
2020/12/06 03:35:13;253798.00;0.85;438.48;0.00;0.00;0.62;;;;;11.10;1.00;;;;;;2272273;61;1941;-88
2020/12/06 03:37:40;275264.00;0.92;475.39;0.00;0.00;0.62;;;;;10.70;1.00;;;;;;2272112;61;1119;-88
2020/12/06 03:40:06;262641.00;0.88;453.69;0.00;0.00;0.62;;;;;10.80;1.00;;;;;;2272168;61;1310;-88
2020/12/06 03:42:33;188512.00;0.63;326.15;0.00;0.00;0.62;;;;;11.40;1.00;;;;;;2272044;61;1053;-88
2020/12/06 03:44:59;226105.00;0.75;390.85;0.00;0.00;0.62;;;;;11.80;1.00;;;;;;2272082;61;1112;-88
2020/12/06 03:47:27;265394.00;0.88;458.42;0.00;0.00;0.62;;;;;12.00;1.00;;;;;;2271914;61;1685;-87
2020/12/06 03:49:53;236087.00;0.79;408.02;0.00;0.00;0.62;;;;;12.20;1.00;;;;;;2272114;61;1271;-87
2020/12/06 03:52:19;185822.00;0.62;321.51;0.00;0.00;0.62;;;;;12.20;1.00;;;;;;2272376;61;953;-87
2020/12/06 03:54:46;212405.00;0.71;367.27;0.00;0.00;0.62;;;;;12.10;1.00;;;;;;2272254;61;1915;-88
2020/12/06 03:57:12;350318.00;1.17;604.41;0.00;0.00;0.62;;;;;12.20;1.00;;;;;;2272220;61;1136;-88
2020/12/06 03:59:39;165113.00;0.55;285.85;0.00;0.00;0.62;;;;;12.00;1.00;;;;;;2272298;61;1255;-88
2020/12/06 04:02:05;232215.00;0.77;401.36;0.00;0.00;0.62;;;;;12.10;1.00;;;;;;2272309;61;1141;-89
2020/12/06 04:04:33;222453.00;0.74;384.56;0.00;0.00;0.62;;;;;12.10;1.00;;;;;;2271979;61;1052;-88
2020/12/06 04:06:59;246106.00;0.82;425.25;0.00;0.00;0.62;;;;;11.90;1.00;;;;;;2272394;61;1126;-87
2020/12/06 04:09:26;483928.00;1.61;834.16;27198.00;0.09;47.73;;;;;11.80;1.00;;;;;;2272315;61;1041;-87
2020/12/06 04:11:52;352177.00;1.17;607.60;0.00;0.00;0.62;;;;;11.40;1.00;;;;;;2271871;61;1345;-88
2020/12/06 04:14:19;242377.00;0.81;418.84;0.00;0.00;0.62;;;;;11.10;1.00;;;;;;2271630;61;1939;-88
2020/12/06 04:16:45;368606.00;1.23;635.84;0.00;0.00;0.62;;;;;11.20;1.00;;;;;;2271753;61;1118;-88
2020/12/06 04:19:12;207984.00;0.69;359.67;0.00;0.00;0.62;;;;;10.80;1.00;;;;;;2271890;61;1052;-88
2020/12/06 04:21:39;344666.00;1.15;594.69;0.00;0.00;0.62;;;;;10.70;1.00;;;;;;2271902;61;1392;-88
2020/12/06 04:24:05;267280.00;0.89;461.67;0.00;0.00;0.62;;;;;10.80;1.00;;;;;;2271702;61;1108;-88
2020/12/06 04:26:32;167942.00;0.56;290.72;0.00;0.00;0.62;;;;;10.90;1.00;;;;;;2271801;61;1172;-88
2020/12/06 04:28:59;471771.00;1.57;813.24;0.00;0.00;0.62;;;;;11.30;1.00;;;;;;2272124;61;1191;-88
2020/12/06 04:31:25;160165.00;0.53;277.32;0.00;0.00;0.62;;;;;11.70;1.00;;;;;;2272387;61;1512;-88
2020/12/06 04:33:52;220180.00;0.73;380.65;0.00;0.00;0.62;;;;;11.50;1.00;;;;;;2272310;61;2008;-88
2020/12/06 04:36:18;307406.00;1.02;530.65;0.00;0.00;0.62;;;;;11.70;1.00;;;;;;2272194;61;911;-88
2020/12/06 04:38:46;291336.00;0.97;503.03;0.00;0.00;0.62;;;;;11.60;1.00;;;;;;2272136;61;1549;-88
2020/12/06 04:41:12;338550.00;1.13;584.18;0.00;0.00;0.62;;;;;10.70;1.00;;;;;;2272277;61;1394;-88
2020/12/06 04:43:40;300035.00;1.00;517.98;0.00;0.00;0.62;;;;;10.40;1.00;;;;;;2272089;61;1124;-88
2020/12/06 04:46:07;265513.00;0.89;458.63;0.00;0.00;0.62;;;;;10.20;1.00;;;;;;2272288;61;1096;-88
2020/12/06 04:48:48;284360.00;0.95;491.03;0.00;0.00;0.62;;;;;10.40;1.00;;;;;;2272507;61;1175;-88
2020/12/06 04:51:15;326491.00;1.09;563.45;0.00;0.00;0.62;;;;;10.60;1.00;;;;;;2272513;61;1349;-87
2020/12/06 04:53:54;157977.00;0.53;273.55;0.00;0.00;0.62;;;;;10.90;1.00;;;;;;2272169;61;1923;-88
2020/12/06 04:56:23;257639.00;0.86;445.09;0.00;0.00;0.62;;;;;10.40;1.00;;;;;;2272501;61;1069;-88
2020/12/06 04:58:52;313559.00;1.05;541.23;0.00;0.00;0.62;;;;;10.00;1.00;;;;;;2272254;61;1104;-88
2020/12/06 05:01:21;260272.00;0.87;449.62;0.00;0.00;0.62;;;;;10.50;1.00;;;;;;2272283;61;1422;-88
2020/12/06 05:03:58;416893.00;1.39;718.85;0.00;0.00;0.62;;;;;10.70;1.00;;;;;;2272098;61;1121;-87
2020/12/06 05:06:28;459128.00;1.53;791.48;0.00;0.00;0.62;;;;;10.70;1.00;;;;;;2272316;61;1061;-88
2020/12/06 05:08:57;552874.00;1.84;952.91;0.00;0.00;0.62;;;;;9.80;1.00;;;;;;2272148;61;1164;-88
2020/12/06 05:11:24;579759.00;1.93;999.28;30643.00;0.10;53.70;;;;;9.60;1.00;;;;;;2272300;61;1308;-88
2020/12/06 05:13:51;302557.00;1.01;522.32;0.00;0.00;0.62;;;;;10.00;1.00;;;;;;2272285;61;2014;-88
2020/12/06 05:16:21;310365.00;1.03;535.74;0.00;0.00;0.62;;;;;10.50;1.00;;;;;;2272272;61;941;-88
2020/12/06 05:18:48;424081.00;1.41;731.21;37615.00;0.13;65.76;;;;;10.60;1.00;;;;;;2272266;61;1042;-88
2020/12/06 05:21:14;273813.00;0.91;472.90;0.00;0.00;0.62;;;;;10.00;1.00;;;;;;2272721;61;1319;-88
2020/12/06 05:23:42;386610.00;1.29;666.79;0.00;0.00;0.62;;;;;9.50;1.00;;;;;;2272182;61;1089;-88
2020/12/06 05:26:09;239817.00;0.80;414.44;0.00;0.00;0.62;;;;;9.80;1.00;;;;;;2272453;61;949;-88
2020/12/06 05:28:36;303988.00;1.01;524.78;0.00;0.00;0.62;;;;;10.30;1.00;;;;;;2272275;61;1125;-88
2020/12/06 05:31:03;373291.00;1.24;643.89;0.00;0.00;0.62;;;;;9.90;1.00;;;;;;2272267;61;1376;-88
2020/12/06 05:33:30;356335.00;1.19;614.75;0.00;0.00;0.62;;;;;10.00;1.00;;;;;;2272152;61;1927;-88
2020/12/06 05:36:00;366849.00;1.22;632.82;0.00;0.00;0.62;;;;;10.30;1.00;;;;;;2272143;61;1072;-88
2020/12/06 05:38:27;168934.00;0.56;292.43;0.00;0.00;0.62;;;;;10.70;1.00;;;;;;2272496;61;1165;-88
2020/12/06 05:40:56;181115.00;0.60;313.41;0.00;0.00;0.62;;;;;11.30;1.00;;;;;;2272179;61;1380;-88
2020/12/06 05:43:28;511178.00;1.70;881.07;38342.00;0.13;67.02;;;;;11.40;1.00;;;;;;2272327;61;1113;-88
2020/12/06 05:46:07;499769.00;1.67;861.43;100309.00;0.33;174.11;;;;;11.20;1.00;;;;;;2272202;61;955;-87
2020/12/06 05:48:34;322335.00;1.07;556.31;0.00;0.00;0.62;;;;;11.00;1.00;;;;;;2272144;61;1540;-88
2020/12/06 05:51:02;405016.00;1.35;698.43;0.00;0.00;0.62;;;;;10.50;1.00;;;;;;2272458;61;1356;-88
2020/12/06 05:53:30;297660.00;0.99;513.90;0.00;0.00;0.62;;;;;10.30;1.00;;;;;;2272493;61;1923;-88
2020/12/06 05:56:04;344761.00;1.15;594.86;0.00;0.00;0.62;;;;;10.20;1.00;;;;;;2271922;61;1124;-88
2020/12/06 05:58:32;373029.00;1.24;643.44;0.00;0.00;0.62;;;;;10.40;1.00;;;;;;2271837;61;1034;-88
2020/12/06 06:01:00;457106.00;1.52;788.01;0.00;0.00;0.62;;;;;10.20;1.00;;;;;;2272076;61;1293;-88
2020/12/06 06:03:29;649886.00;2.17;1120.44;107234.00;0.36;186.06;;;;;9.80;1.00;;;;;;2272266;61;1157;-89
2020/12/06 06:05:57;444827.00;1.48;766.88;20692.00;0.07;36.47;;;;;10.10;1.00;;;;;;2271930;61;1242;-88
2020/12/06 06:08:28;391078.00;1.30;674.47;0.00;0.00;0.62;;;;;10.50;1.00;;;;;;2271835;61;1188;-88
2020/12/06 06:11:24;264921.00;0.88;457.61;0.00;0.00;0.62;;;;;10.50;1.00;;;;;;2271887;61;1479;-88
2020/12/06 06:13:57;292193.00;0.97;504.50;0.00;0.00;0.62;;;;;11.10;1.00;;;;;;2271985;61;1923;-88
2020/12/06 06:16:25;269000.00;0.90;464.62;0.00;0.00;0.62;;;;;11.20;1.00;;;;;;2272370;61;1099;-88
2020/12/06 06:18:53;258990.00;0.86;447.41;0.00;0.00;0.62;;;;;11.60;1.00;;;;;;2271911;61;1666;-88
2020/12/06 06:21:25;310050.00;1.03;535.20;0.00;0.00;0.62;;;;;11.60;1.00;;;;;;2271952;61;1372;-88
2020/12/06 06:23:54;413277.00;1.38;712.63;0.00;0.00;0.62;;;;;11.50;1.00;;;;;;2271868;61;1056;-88
2020/12/06 06:26:26;272971.00;0.91;471.45;0.00;0.00;0.62;;;;;10.70;1.00;;;;;;2272105;61;1080;-88
2020/12/06 06:28:53;122548632.00;408.50;74559856.00;0.00;0.00;0.62;;;;;10.20;1.00;;;;;;2267910;61;1111;-87
2020/12/06 06:31:21;457859.00;1.53;789.30;0.00;0.00;0.62;;;;;9.90;1.00;;;;;;2272136;61;1363;-87
2020/12/06 06:33:49;342006.00;1.14;590.12;0.00;0.00;0.62;;;;;9.80;1.00;;;;;;2272647;61;1914;-87
2020/12/06 06:36:19;385258.00;1.28;664.46;0.00;0.00;0.62;;;;;9.80;1.00;;;;;;2271823;61;1628;-88
2020/12/06 06:38:46;253410.00;0.84;437.82;0.00;0.00;0.62;;;;;9.70;1.00;;;;;;2271966;61;1149;-87
2020/12/06 06:41:13;517162.00;1.72;891.38;0.00;0.00;0.62;;;;;9.60;1.00;;;;;;2271326;61;1290;-88
2020/12/06 06:43:42;354693.00;1.18;611.93;0.00;0.00;0.62;;;;;9.90;1.00;;;;;;2267562;61;1095;-88
2020/12/06 06:46:15;296432.00;0.99;511.79;0.00;0.00;0.62;;;;;9.80;1.00;;;;;;2271817;61;1053;-88
2020/12/06 06:48:45;334225.00;1.11;576.75;0.00;0.00;0.62;;;;;10.10;1.00;;;;;;2271602;61;1061;-88
2020/12/06 06:51:18;510613.00;1.70;880.10;89103.00;0.30;154.76;;;;;10.50;1.00;;;;;;2271713;61;1369;-88
2020/12/06 06:53:45;310289.00;1.03;535.61;0.00;0.00;0.62;;;;;10.80;1.00;;;;;;2271563;61;1923;-88
2020/12/06 06:56:16;263292.00;0.88;454.81;0.00;0.00;0.62;;;;;11.20;1.00;;;;;;2271707;61;1108;-88
2020/12/06 06:58:46;206746.00;0.69;357.54;0.00;0.00;0.62;;;;;11.20;1.00;;;;;;2272305;61;1124;-89
2020/12/06 07:01:18;376744.00;1.26;649.83;0.00;0.00;0.62;;;;;11.30;1.00;;;;;;2271931;61;1446;-88
2020/12/06 07:03:48;428881.00;1.43;739.46;0.00;0.00;0.62;;;;;11.40;1.00;;;;;;2271731;61;1620;-88
2020/12/06 07:06:46;364298.00;1.21;628.44;0.00;0.00;0.62;;;;;11.00;1.00;;;;;;2272105;61;1554;-88
2020/12/06 07:09:14;553336.00;1.84;953.71;75966.00;0.25;132.07;;;;;10.30;1.00;;;;;;2263185;61;1116;-88
2020/12/06 07:11:43;340156.00;1.13;586.94;0.00;0.00;0.62;;;;;9.70;1.00;;;;;;2263690;61;1393;-88
2020/12/06 07:14:09;319641.00;1.07;551.68;0.00;0.00;0.62;;;;;9.80;1.00;;;;;;2263970;61;2005;-88
2020/12/06 07:16:36;433428.00;1.44;747.28;0.00;0.00;0.62;;;;;9.40;1.00;;;;;;2263046;61;1031;-88
2020/12/06 07:19:04;383474.00;1.28;661.40;0.00;0.00;0.62;;;;;8.60;1.00;;;;;;2263248;61;1113;-88
2020/12/06 07:21:32;352889.00;1.18;608.83;0.00;0.00;0.62;;;;;8.40;1.00;;;;;;2263106;61;1400;-88
2020/12/06 07:23:59;444205.00;1.48;765.82;0.00;0.00;0.62;;;;;8.30;1.00;;;;;;2263402;61;1613;-87
2020/12/06 07:26:26;848274.00;2.83;1465.45;16320.00;0.05;28.90;;;;;8.50;1.00;;;;;;2263270;61;1131;-88
2020/12/06 07:28:52;651052.00;2.17;1122.46;0.00;0.00;0.62;;;;;9.00;1.00;;;;;;2263261;61;1593;-88
2020/12/06 07:31:19;679412.00;2.26;1171.55;0.00;0.00;0.62;;;;;9.20;1.00;;;;;;2263121;61;1304;-88
2020/12/06 07:33:46;575641.00;1.92;992.18;0.00;0.00;0.62;;;;;9.50;1.00;;;;;;2262892;61;1923;-87
2020/12/06 07:36:13;422789.00;1.41;728.99;0.00;0.00;0.62;;;;;9.80;1.00;;;;;;2263377;61;1148;-88
2020/12/06 07:38:40;456145.00;1.52;786.35;0.00;0.00;0.62;;;;;9.50;1.00;;;;;;2262860;61;1123;-88
2020/12/06 07:41:06;369867.00;1.23;638.01;0.00;0.00;0.62;;;;;9.70;1.00;;;;;;2262755;61;1407;-88
2020/12/06 07:43:33;260910.00;0.87;450.71;0.00;0.00;0.62;;;;;10.00;1.00;;;;;;2262426;61;1188;-87
2020/12/06 07:46:12;319893.00;1.07;552.11;0.00;0.00;0.62;;;;;10.30;1.00;;;;;;2266607;61;1225;-88
2020/12/06 07:48:38;426821.00;1.42;735.92;0.00;0.00;0.62;;;;;10.30;1.00;;;;;;2270877;61;1064;-88
2020/12/06 07:51:05;449521.00;1.50;774.96;0.00;0.00;0.62;;;;;10.50;1.00;;;;;;2271025;61;1252;-87
2020/12/06 07:53:47;295155.00;0.98;509.59;0.00;0.00;0.62;;;;;10.30;1.00;;;;;;2270942;61;1532;-88
2020/12/06 07:56:19;328400.00;1.09;566.74;0.00;0.00;0.62;;;;;10.10;1.00;;;;;;2271745;61;1124;-88
2020/12/06 07:59:14;363634.00;1.21;627.29;0.00;0.00;0.62;;;;;10.10;1.00;;;;;;2271511;61;1084;-88
2020/12/06 08:01:43;841585.00;2.81;1453.75;94123.00;0.31;163.43;;;;;9.60;1.00;;;;;;2271503;61;1362;-88
2020/12/06 08:04:14;615054.00;2.05;1060.22;92008.00;0.31;159.77;;;;;9.50;1.00;;;;;;2271399;61;1111;-87
2020/12/06 08:06:44;906824.00;3.02;1568.11;83051.00;0.28;144.31;;;;;9.50;1.00;;;;;;2271433;61;1140;-87
2020/12/06 08:09:14;831622.00;2.77;1436.33;97023.00;0.32;168.43;;;;;9.50;1.00;;;;;;2271426;61;1131;-87
2020/12/06 08:11:51;994727.00;3.32;1723.13;82615.00;0.28;143.55;;;;;9.50;1.00;;;;;;2271248;61;1544;-86
2020/12/06 08:14:19;803983.00;2.68;1388.07;79278.00;0.26;137.79;;;;;9.60;1.00;;;;;;2270819;61;1923;-87
2020/12/06 08:16:58;936725.00;3.12;1620.71;94152.00;0.31;163.48;;;;;9.50;1.00;;;;;;2270628;61;1125;-88
2020/12/06 08:19:26;406594.00;1.36;701.14;0.00;0.00;0.62;;;;;9.80;1.00;;;;;;2270843;61;1137;-88
2020/12/06 08:21:58;600448.00;2.00;1034.99;0.00;0.00;0.62;;;;;10.10;1.00;;;;;;2270731;61;1279;-88
2020/12/06 08:24:28;750035.00;2.50;1294.12;0.00;0.00;0.62;;;;;10.30;1.00;;;;;;2270198;61;1134;-87
2020/12/06 08:26:55;500328.00;1.67;862.39;0.00;0.00;0.62;;;;;9.80;1.00;;;;;;2270545;61;1125;-88
2020/12/06 08:29:40;413613.00;1.38;713.21;0.00;0.00;0.62;;;;;9.60;1.00;;;;;;2270534;61;1109;-88
2020/12/06 08:32:07;329202.00;1.10;568.11;0.00;0.00;0.62;;;;;9.10;1.00;;;;;;2270421;61;1192;-87
2020/12/06 08:34:34;426526.00;1.42;735.41;14713.00;0.05;26.11;;;;;9.10;1.00;;;;;;2270946;61;1996;-87
2020/12/06 08:37:17;389473.00;1.30;671.71;0.00;0.00;0.62;;;;;9.00;1.00;;;;;;2271056;61;1128;-87
2020/12/06 08:39:46;531943.00;1.77;916.84;0.00;0.00;0.62;;;;;9.40;1.00;;;;;;2271162;61;1379;-87
2020/12/06 08:42:14;430478.00;1.43;742.21;0.00;0.00;0.62;;;;;8.80;1.00;;;;;;2271962;61;1682;-88
2020/12/06 08:44:53;450370.00;1.50;776.42;0.00;0.00;0.62;;;;;8.40;1.00;;;;;;2272304;61;1116;-88
2020/12/06 08:47:20;353322.00;1.18;609.57;0.00;0.00;0.62;;;;;8.80;1.00;;;;;;2272283;61;1078;-88
2020/12/06 08:49:46;404588.00;1.35;697.69;0.00;0.00;0.62;;;;;9.10;1.00;;;;;;2271731;61;1379;-87
2020/12/06 08:52:21;519390.00;1.73;895.21;0.00;0.00;0.62;;;;;9.30;1.00;;;;;;2272184;61;1181;-87
2020/12/06 08:54:50;651477.00;2.17;1123.19;0.00;0.00;0.62;;;;;9.30;1.00;;;;;;2272121;61;1917;-87
2020/12/06 08:57:19;624734.00;2.08;1076.95;0.00;0.00;0.62;;;;;9.30;1.00;;;;;;2272068;61;1223;-88
2020/12/06 08:59:45;675916.00;2.25;1165.50;0.00;0.00;0.62;;;;;9.70;1.00;;;;;;2271947;61;1294;-88
2020/12/06 09:02:21;640789.00;2.14;1104.70;0.00;0.00;0.62;;;;;10.40;1.00;;;;;;2271901;61;1023;-88
2020/12/06 09:04:48;408765.00;1.36;704.87;0.00;0.00;0.62;;;;;10.80;1.00;;;;;;2271649;61;1605;-88
2020/12/06 09:07:14;283125.00;0.94;488.91;0.00;0.00;0.62;;;;;10.80;1.00;;;;;;2271150;61;1043;-88
2020/12/06 09:09:41;459039.00;1.53;791.33;0.00;0.00;0.62;;;;;11.10;1.00;;;;;;2271465;61;1407;-88
2020/12/06 09:12:09;399302.00;1.33;688.61;0.00;0.00;0.62;;;;;10.10;1.00;;;;;;2271337;61;1147;-88
2020/12/06 09:14:36;402119.00;1.34;693.45;0.00;0.00;0.62;;;;;9.80;1.00;;;;;;2271317;61;2009;-88
2020/12/06 09:17:03;327636.00;1.09;565.42;0.00;0.00;0.62;;;;;9.80;1.00;;;;;;2271740;61;1301;-88
2020/12/06 09:19:30;371677.00;1.24;641.12;0.00;0.00;0.62;;;;;9.70;1.00;;;;;;2271625;61;1156;-87
2020/12/06 09:21:56;404834.00;1.35;698.12;0.00;0.00;0.62;;;;;9.40;1.00;;;;;;2271756;61;1313;-88
2020/12/06 09:24:23;438885.00;1.46;756.67;0.00;0.00;0.62;;;;;9.40;1.00;;;;;;2271871;61;1184;-88
2020/12/06 09:26:49;568450.00;1.89;979.77;0.00;0.00;0.62;;;;;9.30;1.00;;;;;;2271874;61;1121;-88
2020/12/06 09:29:16;423390.00;1.41;730.02;0.00;0.00;0.62;;;;;9.50;1.00;;;;;;2271647;61;1120;-88
2020/12/06 09:31:43;568753.00;1.90;980.30;0.00;0.00;0.62;;;;;9.50;1.00;;;;;;2272242;61;1278;-88
2020/12/06 09:34:09;503915.00;1.68;868.56;0.00;0.00;0.62;;;;;9.00;1.00;;;;;;2272087;61;2001;-88
2020/12/06 09:36:41;585789.00;1.95;1009.69;0.00;0.00;0.62;;;;;9.10;1.00;;;;;;2271905;61;1059;-88
2020/12/06 09:39:08;418698.00;1.40;721.95;0.00;0.00;0.62;;;;;9.20;1.00;;;;;;2271490;61;1155;-88
2020/12/06 09:41:35;427341.00;1.42;736.81;0.00;0.00;0.62;;;;;9.90;1.00;;;;;;2271571;61;1292;-88
2020/12/06 09:44:05;510578.00;1.70;880.04;0.00;0.00;0.62;;;;;10.20;1.00;;;;;;2271800;61;1054;-88
2020/12/06 09:46:32;246476.00;0.82;425.89;0.00;0.00;0.62;;;;;10.80;1.00;;;;;;2271750;61;1114;-88
2020/12/06 09:48:58;359522.00;1.20;620.23;0.00;0.00;0.62;;;;;11.10;1.00;;;;;;2271799;61;1140;-87
2020/12/06 09:51:25;444257.00;1.48;765.90;0.00;0.00;0.62;;;;;11.20;1.00;;;;;;2271754;61;1352;-89
2020/12/06 09:53:51;361357.00;1.20;623.38;0.00;0.00;0.62;;;;;11.50;1.00;;;;;;2271651;61;1057;-88
2020/12/06 09:56:18;445356.00;1.48;767.79;0.00;0.00;0.62;;;;;11.50;1.00;;;;;;2271698;61;1940;-89
2020/12/06 09:58:45;318101.00;1.06;549.03;0.00;0.00;0.62;;;;;11.60;1.00;;;;;;2271921;61;1672;-88
2020/12/06 10:01:11;524700.00;1.75;904.36;0.00;0.00;0.62;;;;;11.20;1.00;;;;;;2272016;61;1375;-89
2020/12/06 10:03:38;503492.00;1.68;867.84;0.00;0.00;0.62;;;;;11.60;1.00;;;;;;2271759;61;1061;-89